Time;durP1;ratioP1;P1;durP2;ratioP2;P2;SDS_P1;SDS_P2;PMS_P1;PMS_P2;Temp;Humidity;BMP_temperature;BMP_pressure;BME280_temperature;BME280_humidity;BME280_pressure;Samples;Min_cycle;Max_cycle;Signal;HPM_P1;HPM_P2
2023/03/24 00:02:12;;;;;;;132.37;69.87;;;;;;;5.77;100.00;-5951.53;5152211;27;20188;-59
2023/03/24 00:04:41;;;;;;;136.37;70.43;;;;;;;5.50;100.00;-5001.13;5153419;27;20587;-59
2023/03/24 00:07:13;;;;;;;131.37;71.20;;;;;;;5.80;100.00;-4685.47;5153277;27;20253;-59
2023/03/24 00:09:41;;;;;;;139.27;73.80;;;;;;;5.76;100.00;-4685.34;5153615;27;20246;-58
2023/03/24 00:12:10;;;;;;;139.20;76.50;;;;;;;6.06;100.00;-4686.13;5153078;27;20230;-59
2023/03/24 00:14:38;;;;;;;152.93;81.17;;;;;;;5.84;100.00;-4368.91;5153318;27;20254;-58
2023/03/24 00:17:05;;;;;;;151.17;82.50;;;;;;;6.22;100.00;-3735.91;5153047;27;20190;-60
2023/03/24 00:19:37;;;;;;;135.87;75.93;;;;;;;6.11;100.00;-3418.91;5153064;27;20213;-58
2023/03/24 00:22:04;;;;;;;134.83;74.80;;;;;;;6.08;100.00;-4369.41;5153485;27;20585;-60
2023/03/24 00:24:32;;;;;;;142.00;75.73;;;;;;;6.11;100.00;-5636.44;5153475;27;20288;-59
2023/03/24 00:26:59;;;;;;;138.30;76.53;;;;;;;6.14;100.00;-6586.50;5153158;27;20629;-59
2023/03/24 00:29:28;;;;;;;147.53;79.43;;;;;;;6.03;100.00;-7535.41;5152991;27;20184;-59
2023/03/24 00:31:55;;;;;;;137.27;76.63;;;;;;;6.20;100.00;-7220.06;5152936;27;20347;-59
2023/03/24 00:34:22;;;;;;;130.67;71.00;;;;;;;6.24;100.00;-7220.38;5153501;27;20546;-59
2023/03/24 00:36:50;;;;;;;125.17;66.33;;;;;;;6.39;100.00;-6587.97;5152590;27;20261;-59
2023/03/24 00:39:18;;;;;;;104.50;57.70;;;;;;;6.38;100.00;-5637.56;5152920;27;20186;-59
2023/03/24 00:41:46;;;;;;;120.10;65.93;;;;;;;6.34;100.00;-4686.84;5152761;27;20676;-59
2023/03/24 00:44:16;;;;;;;115.50;66.47;;;;;;;6.41;100.00;-3736.13;5153020;27;20186;-59
2023/03/24 00:46:55;;;;;;;129.97;71.97;;;;;;;6.60;100.00;-3102.00;5152343;27;20178;-59
2023/03/24 00:49:40;;;;;;;126.20;69.00;;;;;;;6.32;100.00;-3419.03;5152921;27;20693;-58
2023/03/24 00:52:09;;;;;;;125.73;69.87;;;;;;;6.39;100.00;-5003.88;5153285;27;20193;-59
2023/03/24 00:54:36;;;;;;;112.90;65.90;;;;;;;6.22;100.00;-6270.31;5153146;27;20225;-59
2023/03/24 00:57:03;;;;;;;120.47;64.50;;;;;;;6.23;100.00;-8169.88;5152571;27;20201;-59
2023/03/24 00:59:31;;;;;;;109.97;59.87;;;;;;;6.00;100.00;-9117.03;5152635;27;20225;-59
2023/03/24 01:01:59;;;;;;;108.30;61.20;;;;;;;6.08;100.00;-9750.41;5152460;27;20182;-60
2023/03/24 01:04:26;;;;;;;101.50;56.50;;;;;;;6.02;100.00;-10065.94;5153137;27;20285;-59
2023/03/24 01:06:57;;;;;;;94.40;53.60;;;;;;;6.04;100.00;-10698.59;5152320;27;20290;-58
2023/03/24 01:09:24;;;;;;;80.23;47.23;;;;;;;6.01;100.00;-11014.28;5152840;27;20220;-58
2023/03/24 01:11:51;;;;;;;81.00;46.17;;;;;;;5.79;100.00;-10695.47;5152435;27;20249;-59
2023/03/24 01:14:19;;;;;;;79.00;45.77;;;;;;;5.80;100.00;-10379.59;5154631;27;20212;-59
2023/03/24 01:16:46;;;;;;;78.20;44.90;;;;;;;5.78;100.00;-10063.22;5156525;27;20186;-59
2023/03/24 01:19:15;;;;;;;82.63;42.53;;;;;;;5.78;100.00;-10063.22;5156855;27;20224;-59
2023/03/24 01:21:42;;;;;;;89.80;44.70;;;;;;;5.79;100.00;-9115.00;5156377;27;20189;-60
2023/03/24 01:24:09;;;;;;;75.00;44.77;;;;;;;5.75;100.00;-9114.59;5156277;27;20273;-59
2023/03/24 01:26:36;;;;;;;81.23;41.27;;;;;;;5.77;100.00;-8166.16;5155713;27;20269;-60
2023/03/24 01:29:03;;;;;;;71.17;38.10;;;;;;;5.48;100.00;-8163.72;5155638;27;20206;-60
2023/03/24 01:31:30;;;;;;;71.47;40.40;;;;;;;5.71;100.00;-7849.34;5155734;27;20256;-59
2023/03/24 01:33:57;;;;;;;69.70;38.73;;;;;;;5.79;100.00;-8482.56;5155932;27;20676;-59
2023/03/24 01:36:26;;;;;;;70.53;35.53;;;;;;;5.87;100.00;-9115.75;5155795;27;20664;-59
2023/03/24 01:38:53;;;;;;;54.93;32.20;;;;;;;5.92;100.00;-9432.53;5155842;27;20182;-59
2023/03/24 01:41:20;;;;;;;72.07;39.37;;;;;;;5.68;100.00;-7532.91;5155910;27;20217;-58
2023/03/24 01:43:47;;;;;;;56.07;31.53;;;;;;;5.88;100.00;-6901.53;5156032;27;20175;-60
2023/03/24 01:46:17;;;;;;;64.20;36.10;;;;;;;5.63;100.00;-5950.88;5155733;27;20182;-59
2023/03/24 01:48:50;;;;;;;50.30;32.80;;;;;;;5.60;100.00;-5001.44;5155783;27;20759;-60
2023/03/24 01:51:21;;;;;;;53.47;31.27;;;;;;;5.49;100.00;-3418.56;5155971;27;20181;-58
2023/03/24 01:53:53;;;;;;;46.50;31.70;;;;;;;5.49;100.00;-1835.28;5156115;27;20273;-59
2023/03/24 01:56:20;;;;;;;49.60;31.77;;;;;;;5.37;100.00;-568.59;5156057;27;20581;-59
2023/03/24 01:58:51;;;;;;;54.80;32.47;;;;;;;5.31;100.00;-568.84;5155773;27;20178;-59
2023/03/24 02:01:19;;;;;;;71.67;34.17;;;;;;;5.34;100.00;1015.56;5155707;27;20182;-58
2023/03/24 02:03:46;;;;;;;117.47;35.90;;;;;;;5.29;100.00;2283.06;5156000;27;20225;-59
2023/03/24 02:06:15;;;;;;;95.87;35.47;;;;;;;5.26;100.00;3551.09;5155086;27;20702;-59
2023/03/24 02:08:48;;;;;;;155.60;40.93;;;;;;;5.15;100.00;4501.34;5155916;27;20285;-59
2023/03/24 02:11:17;;;;;;;306.97;52.03;;;;;;;5.30;100.00;5137.69;5154827;27;20228;-59
2023/03/24 02:13:44;;;;;;;289.43;54.37;;;;;;;5.29;100.00;6089.59;5155780;27;20528;-60
2023/03/24 02:16:31;;;;;;;320.90;56.67;;;;;;;5.36;100.00;7360.69;5155422;27;20592;-58
2023/03/24 02:19:22;;;;;;;361.47;60.20;;;;;;;5.32;100.00;7359.94;5155049;27;20281;-61
2023/03/24 02:22:33;;;;;;;367.67;59.37;;;;;;;5.22;100.00;7993.25;5155402;27;20190;-59
2023/03/24 02:25:28;;;;;;;289.97;56.70;;;;;;;5.16;100.00;7674.66;5113856;27;20247;-60
2023/03/24 02:28:24;;;;;;;307.00;55.23;;;;;;;4.97;100.00;7988.91;5155150;27;20206;-59
2023/03/24 02:31:35;;;;;;;294.63;56.73;;;;;;;4.89;100.00;6718.19;5155148;27;20186;-58
2023/03/24 02:34:41;;;;;;;361.33;62.13;;;;;;;5.02;100.00;6720.19;5154616;27;20190;-59
2023/03/24 02:37:41;;;;;;;310.40;55.97;;;;;;;5.06;100.00;7038.19;5154921;27;20213;-60
2023/03/24 02:40:34;;;;;;;178.40;52.07;;;;;;;5.02;100.00;7672.28;5154639;27;20189;-59
2023/03/24 02:43:09;;;;;;;158.70;50.50;;;;;;;4.85;100.00;7986.72;5155254;27;20213;-60
2023/03/24 02:45:42;;;;;;;163.73;45.03;;;;;;;4.90;100.00;7670.28;5154245;27;20186;-59
2023/03/24 02:48:21;;;;;;;132.43;43.07;;;;;;;4.76;100.00;6716.13;5154305;27;20316;-60
2023/03/24 02:50:54;;;;;;;135.00;43.73;;;;;;;4.54;100.00;8615.56;5153983;27;20228;-59
2023/03/24 02:53:30;;;;;;;164.00;44.93;;;;;;;4.44;100.00;8613.75;5154972;27;20230;-59
2023/03/24 02:56:02;;;;;;;134.97;40.63;;;;;;;4.50;100.00;8614.78;5154351;27;20556;-61
2023/03/24 02:58:35;;;;;;;94.60;41.17;;;;;;;4.55;100.00;8298.50;5154958;27;20261;-59
2023/03/24 03:01:07;;;;;;;63.43;39.67;;;;;;;4.44;100.00;8613.66;5154558;27;20182;-58
2023/03/24 03:03:40;;;;;;;62.27;38.63;;;;;;;4.36;100.00;7660.78;5154585;27;20201;-60
2023/03/24 03:06:17;;;;;;;45.67;33.93;;;;;;;4.22;100.00;7658.31;5154697;27;20639;-59
2023/03/24 03:08:47;;;;;;;51.73;32.77;;;;;;;4.45;100.00;7345.25;5154427;27;20604;-59
2023/03/24 03:11:17;;;;;;;49.93;34.63;;;;;;;4.39;100.00;7661.41;5154296;27;20273;-59
2023/03/24 03:13:48;;;;;;;72.20;37.53;;;;;;;4.48;100.00;7345.78;5154329;27;20213;-59
2023/03/24 03:16:21;;;;;;;65.17;37.07;;;;;;;4.37;100.00;7343.91;5154200;27;20221;-61
2023/03/24 03:18:51;;;;;;;86.73;39.97;;;;;;;4.55;100.00;7346.97;5154189;27;20225;-60
2023/03/24 03:21:22;;;;;;;244.43;47.70;;;;;;;4.79;100.00;7350.97;5153972;27;20335;-58
2023/03/24 03:23:52;;;;;;;62.70;38.10;;;;;;;4.59;100.00;7982.03;5153750;27;20186;-59
2023/03/24 03:26:25;;;;;;;78.23;40.97;;;;;;;4.69;100.00;8618.34;5154049;27;20251;-58
2023/03/24 03:28:56;;;;;;;182.43;45.60;;;;;;;4.64;100.00;7665.59;5153692;27;20656;-58
2023/03/24 03:31:29;;;;;;;140.47;44.10;;;;;;;4.51;100.00;8615.00;5154171;27;20280;-59
2023/03/24 03:34:04;;;;;;;144.73;44.27;;;;;;;4.55;100.00;6078.75;5153434;27;20186;-60
2023/03/24 03:36:35;;;;;;;158.80;45.33;;;;;;;4.41;100.00;5759.66;5153083;27;20264;-59
2023/03/24 03:39:15;;;;;;;255.03;50.13;;;;;;;4.66;100.00;5446.22;5154091;27;20186;-60
2023/03/24 03:41:45;;;;;;;351.30;60.80;;;;;;;4.37;100.00;5759.13;5154168;27;20188;-59
2023/03/24 03:44:12;;;;;;;824.03;110.63;;;;;;;4.72;100.00;5447.00;5153362;27;20182;-59
2023/03/24 03:46:39;;;;;;;1228.17;149.37;;;;;;;4.66;100.00;5446.16;5153407;27;20243;-60
2023/03/24 03:49:07;;;;;;;998.90;135.13;;;;;;;4.84;100.00;5448.75;5153543;27;20209;-60
2023/03/24 03:51:35;;;;;;;773.10;111.47;;;;;;;4.88;100.00;5766.38;5153246;27;20620;-59
2023/03/24 03:54:05;;;;;;;594.73;86.40;;;;;;;4.56;100.00;6395.84;5153867;27;20538;-59
2023/03/24 03:56:34;;;;;;;717.77;104.60;;;;;;;4.80;100.00;6399.56;5153603;27;20178;-60
2023/03/24 03:59:05;;;;;;;865.53;120.73;;;;;;;4.86;100.00;6400.50;5152798;27;20255;-59
2023/03/24 04:01:35;;;;;;;581.60;84.93;;;;;;;4.98;100.00;6402.34;5153437;27;20188;-60
2023/03/24 04:04:25;;;;;;;694.97;100.13;;;;;;;5.00;100.00;6085.41;5153154;27;20201;-59
2023/03/24 04:07:06;;;;;;;467.27;69.20;;;;;;;4.95;100.00;6084.66;5152896;27;20272;-60
2023/03/24 04:09:41;;;;;;;246.73;50.53;;;;;;;4.82;100.00;6399.88;5153328;27;20205;-60
2023/03/24 04:12:31;;;;;;;158.17;47.33;;;;;;;4.88;100.00;5766.38;5153311;27;20192;-60
2023/03/24 04:15:37;;;;;;;77.43;37.57;;;;;;;4.75;100.00;5764.56;5152944;27;20663;-59
2023/03/24 04:18:29;;;;;;;62.33;37.30;;;;;;;4.76;100.00;5130.50;5131934;27;20272;-60
2023/03/24 04:21:11;;;;;;;56.67;36.57;;;;;;;4.89;100.00;3230.22;5153281;27;20229;-58
2023/03/24 04:23:49;;;;;;;56.17;33.77;;;;;;;4.75;100.00;2278.41;5153265;27;20190;-61
2023/03/24 04:26:25;;;;;;;63.93;42.57;;;;;;;4.92;100.00;1329.50;5153568;27;20181;-59
2023/03/24 04:29:08;;;;;;;102.13;49.70;;;;;;;5.07;100.00;697.00;5153060;27;20247;-60
2023/03/24 04:31:41;;;;;;;119.50;52.27;;;;;;;5.03;100.00;380.03;5152708;27;20609;-60
2023/03/24 04:34:16;;;;;;;93.37;53.63;;;;;;;5.17;100.00;380.78;5153348;27;20639;-59
2023/03/24 04:36:49;;;;;;;91.83;55.33;;;;;;;5.36;100.00;1015.69;5153425;27;20595;-59
2023/03/24 04:39:24;;;;;;;144.20;59.80;;;;;;;5.40;100.00;1332.94;5152925;27;20231;-58
2023/03/24 04:41:52;;;;;;;278.00;66.13;;;;;;;5.40;100.00;1332.94;5153013;27;20264;-59
2023/03/24 04:44:21;;;;;;;117.60;59.33;;;;;;;5.52;100.00;1967.97;5153317;27;20186;-59
2023/03/24 04:46:48;;;;;;;155.67;63.63;;;;;;;5.68;100.00;2286.44;5152774;27;20763;-61
2023/03/24 04:49:18;;;;;;;119.57;60.53;;;;;;;5.69;100.00;1335.00;5156220;27;20204;-61
2023/03/24 04:51:47;;;;;;;82.90;56.23;;;;;;;6.01;100.00;702.72;5157179;27;20190;-59
2023/03/24 04:54:14;;;;;;;86.80;58.77;;;;;;;6.03;100.00;68.38;5156690;27;20209;-61
2023/03/24 04:56:46;;;;;;;100.13;60.97;;;;;;;6.37;100.00;-247.19;5157320;27;20201;-60
2023/03/24 04:59:14;;;;;;;106.33;62.67;;;;;;;6.57;100.00;-881.09;5138478;27;20190;-60
2023/03/24 05:01:48;;;;;;;103.20;61.77;;;;;;;6.84;100.00;-562.59;5157221;27;20238;-59
2023/03/24 05:04:17;;;;;;;109.27;63.20;;;;;;;7.37;100.00;-1513.75;5157230;27;20193;-61
2023/03/24 05:06:45;;;;;;;123.33;61.13;;;;;;;7.49;100.00;-5324.72;5156680;27;20188;-59
2023/03/24 05:09:13;;;;;;;93.47;58.43;;;;;;;7.76;100.00;-10402.72;5157010;27;20210;-60
2023/03/24 05:11:40;;;;;;;97.07;58.13;;;;;;;7.65;100.00;-15153.09;5156802;27;20285;-59
2023/03/24 05:14:07;;;;;;;104.00;56.80;;;;;;;7.54;100.00;-17365.63;5156058;27;20193;-60
2023/03/24 05:16:34;;;;;;;105.77;54.47;;;;;;;7.49;100.00;-16731.88;5156136;27;20655;-59
2023/03/24 05:19:01;;;;;;;184.60;59.03;;;;;;;7.35;100.00;-15463.56;5156349;27;20193;-59
2023/03/24 05:21:30;;;;;;;165.80;59.80;;;;;;;7.08;100.00;-15141.91;5155716;27;20242;-59
2023/03/24 05:23:57;;;;;;;182.63;61.47;;;;;;;6.89;100.00;-17034.66;5156723;27;20190;-61
2023/03/24 05:26:26;;;;;;;357.43;67.00;;;;;;;6.87;100.00;-17666.19;5156736;27;20251;-58
2023/03/24 05:28:53;;;;;;;176.83;59.23;;;;;;;6.81;100.00;-17980.50;5156176;27;20209;-60
2023/03/24 05:31:20;;;;;;;151.20;59.33;;;;;;;6.68;100.00;-17661.69;5156232;27;20189;-59
2023/03/24 05:33:47;;;;;;;164.33;58.13;;;;;;;6.63;100.00;-16397.13;5155918;27;20232;-60
2023/03/24 05:36:14;;;;;;;245.07;63.30;;;;;;;6.62;100.00;-14500.97;5156129;27;20193;-59
2023/03/24 05:38:43;;;;;;;251.30;62.90;;;;;;;6.61;100.00;-12603.75;5155594;27;20182;-58
2023/03/24 05:41:09;;;;;;;237.90;61.23;;;;;;;6.32;100.00;-11334.59;5155787;27;20648;-59
2023/03/24 05:43:36;;;;;;;343.50;69.50;;;;;;;6.68;100.00;-10073.41;5155374;27;20182;-59
2023/03/24 05:46:03;;;;;;;404.40;69.80;;;;;;;6.59;100.00;-9439.38;5156368;27;20186;-60
2023/03/24 05:48:30;;;;;;;191.83;61.43;;;;;;;6.71;100.00;-9123.94;5155771;27;20233;-59
2023/03/24 05:50:57;;;;;;;353.57;68.87;;;;;;;6.81;100.00;-9124.97;5156170;27;20293;-59
2023/03/24 05:53:24;;;;;;;534.57;82.23;;;;;;;6.93;100.00;-9126.03;5155880;27;20186;-59
2023/03/24 05:55:52;;;;;;;251.30;68.07;;;;;;;6.87;100.00;-8808.78;5155834;27;20218;-60
2023/03/24 05:58:20;;;;;;;343.63;72.00;;;;;;;6.94;100.00;-8175.69;5155289;27;20178;-58
2023/03/24 06:00:47;;;;;;;223.47;64.83;;;;;;;6.91;100.00;-7858.59;5154757;27;20189;-60
2023/03/24 06:03:15;;;;;;;378.30;74.47;;;;;;;7.02;100.00;-8176.38;5155774;27;20198;-59
2023/03/24 06:05:44;;;;;;;274.13;67.53;;;;;;;7.33;100.00;-8813.03;5155055;27;20182;-58
2023/03/24 06:08:11;;;;;;;190.77;64.00;;;;;;;7.63;100.00;-10401.16;5155184;27;20182;-60
2023/03/24 06:10:39;;;;;;;159.17;61.27;;;;;;;7.92;100.00;-13257.63;5155072;27;20625;-60
2023/03/24 06:13:08;;;;;;;96.77;56.43;;;;;;;8.06;100.00;-16427.81;5154744;27;20213;-59
2023/03/24 06:15:35;;;;;;;91.83;56.80;;;;;;;8.59;100.00;-18025.03;5155063;27;20628;-60
2023/03/24 06:18:04;;;;;;;98.63;54.93;;;;;;;8.76;100.00;-17710.47;5154694;27;20182;-61
2023/03/24 06:20:31;;;;;;;87.70;54.97;;;;;;;9.67;100.00;-16462.09;5154775;27;20277;-61
2023/03/24 06:22:58;;;;;;;83.10;53.50;;;;;;;10.15;100.00;-13611.94;5154854;27;20190;-60
2023/03/24 06:25:27;;;;;;;92.90;53.23;;;;;;;10.38;100.00;-2463.47;5155048;27;20186;-61
2023/03/24 06:27:54;;;;;;;83.20;50.33;;;;;;;10.70;100.00;6811.03;5155403;27;20277;-60
2023/03/24 06:30:22;;;;;;;81.63;46.00;;;;;;;11.15;100.00;18697.66;5154587;27;20208;-61
2023/03/24 06:32:50;;;;;;;97.33;46.47;;;;;;;11.64;100.00;35495.72;5154843;27;20627;-61
2023/03/24 06:35:17;;;;;;;63.17;40.00;;;;;;;12.37;100.00;64166.00;5154799;27;20250;-62
2023/03/24 06:37:44;;;;;;;54.40;37.80;;;;;;;12.80;100.00;76330.03;5154754;27;20197;-61
2023/03/24 06:40:14;;;;;;;56.37;37.40;;;;;;;13.61;100.00;98843.75;5154604;27;20278;-61
2023/03/24 06:42:41;;;;;;;80.47;38.13;;;;;;;14.18;100.00;135197.88;5154931;27;20186;-60
2023/03/24 06:45:09;;;;;;;72.00;37.70;;;;;;;14.29;100.00;149630.16;5154559;27;20193;-61
2023/03/24 06:47:38;;;;;;;60.43;34.93;;;;;;;14.37;100.00;149650.47;5154637;27;20627;-60
2023/03/24 06:50:06;;;;;;;54.67;34.57;;;;;;;14.92;100.00;149787.41;5153717;27;20213;-61
2023/03/24 06:52:34;;;;;;;71.53;35.17;;;;;;;15.08;100.00;149829.28;5154592;27;20625;-61
2023/03/24 06:55:01;;;;;;;75.10;40.00;;;;;;;15.87;100.00;150026.03;5154384;27;20235;-61
2023/03/24 06:57:28;;;;;;;61.83;44.40;;;;;;;16.37;100.00;150151.69;5154543;27;20178;-60
2023/03/24 06:59:56;;;;;;;79.03;46.53;;;;;;;16.83;100.00;150268.56;5154214;27;20276;-60
2023/03/24 07:02:22;;;;;;;64.73;39.97;;;;;;;16.76;100.00;150249.53;5153689;27;20658;-61
2023/03/24 07:04:52;;;;;;;56.30;37.90;;;;;;;16.45;100.00;150173.28;5153962;27;20609;-60
2023/03/24 07:07:23;;;;;;;79.40;37.97;;;;;;;16.57;100.00;150202.50;5153852;27;20186;-61
2023/03/24 07:09:50;;;;;;;73.13;39.33;;;;;;;16.72;100.00;150239.38;5153840;27;20198;-60
2023/03/24 07:12:17;;;;;;;54.33;37.07;;;;;;;16.72;100.00;150240.59;5152369;27;20238;-61
2023/03/24 07:14:44;;;;;;;74.83;41.77;;;;;;;16.59;100.00;150207.56;5153833;27;20189;-61
2023/03/24 07:17:11;;;;;;;52.30;44.10;;;;;;;16.48;100.00;150179.59;5153889;27;20189;-60
2023/03/24 07:19:37;;;;;;;61.13;43.97;;;;;;;16.56;100.00;150199.91;5153669;27;20178;-60
2023/03/24 07:22:07;;;;;;;86.90;46.13;;;;;;;16.34;100.00;150144.03;5153056;27;20182;-61
2023/03/24 07:24:34;;;;;;;64.30;41.40;;;;;;;16.52;100.00;150188.47;5153441;27;20282;-60
2023/03/24 07:27:01;;;;;;;60.80;37.27;;;;;;;16.29;100.00;150131.38;5153118;27;20269;-61
2023/03/24 07:29:27;;;;;;;53.53;35.13;;;;;;;16.90;100.00;150285.06;5153019;27;20210;-60
2023/03/24 07:31:57;;;;;;;51.13;35.60;;;;;;;16.97;100.00;150301.59;5152772;27;20189;-60
2023/03/24 07:34:24;;;;;;;55.93;35.00;;;;;;;16.97;100.00;150302.88;5153509;27;20259;-60
2023/03/24 07:36:51;;;;;;;54.30;32.37;;;;;;;16.97;100.00;150301.59;5153009;27;20276;-61
2023/03/24 07:39:23;;;;;;;37.83;29.90;;;;;;;17.06;100.00;150324.47;5135618;27;20234;-61
2023/03/24 07:41:50;;;;;;;32.53;27.43;;;;;;;17.23;100.00;150367.63;5153321;27;20636;-61
2023/03/24 07:44:17;;;;;;;95.40;31.43;;;;;;;17.50;100.00;150436.25;5153606;27;20204;-61
2023/03/24 07:46:44;;;;;;;43.20;25.43;;;;;;;17.70;100.00;150485.84;5134611;27;20186;-61
2023/03/24 07:49:11;;;;;;;26.93;24.10;;;;;;;17.37;100.00;150403.22;5153086;27;20198;-60
2023/03/24 07:51:40;;;;;;;31.17;23.00;;;;;;;17.95;100.00;150549.41;5116629;27;20196;-60
2023/03/24 07:54:08;;;;;;;31.83;23.70;;;;;;;17.92;100.00;150540.50;5051474;27;20289;-60
2023/03/24 07:56:36;;;;;;;36.47;25.87;;;;;;;18.06;100.00;150576.13;5048919;28;20658;-60
2023/03/24 07:59:03;;;;;;;51.33;26.60;;;;;;;18.19;100.00;150609.19;5048257;28;20192;-61
2023/03/24 08:01:30;;;;;;;52.10;27.03;;;;;;;17.98;100.00;150555.78;5048451;28;20190;-60
2023/03/24 08:03:57;;;;;;;49.20;29.17;;;;;;;18.05;100.00;150573.56;5117249;27;20197;-60
2023/03/24 08:06:23;;;;;;;48.00;29.17;;;;;;;18.01;100.00;150564.69;5049042;28;20632;-61
2023/03/24 08:08:53;;;;;;;47.27;27.70;;;;;;;18.11;100.00;150588.84;5048020;28;20197;-61
2023/03/24 08:11:20;;;;;;;63.57;29.13;;;;;;;18.31;100.00;150639.69;5048299;28;20235;-60
2023/03/24 08:13:50;;;;;;;42.27;28.37;;;;;;;18.74;100.00;150747.84;5048153;28;20281;-61
2023/03/24 08:16:18;;;;;;;29.27;25.13;;;;;;;18.98;100.00;150808.88;5048510;28;20622;-61
2023/03/24 08:18:45;;;;;;;48.03;25.67;;;;;;;18.87;100.00;150780.91;5048089;28;20186;-61
2023/03/24 08:21:11;;;;;;;31.20;23.83;;;;;;;18.85;100.00;150774.53;5048401;28;20624;-61
2023/03/24 08:23:38;;;;;;;43.10;22.93;;;;;;;18.94;100.00;150797.44;5048302;28;20192;-61
2023/03/24 08:26:09;;;;;;;32.07;24.77;;;;;;;19.42;100.00;150919.59;5048377;28;20284;-61
2023/03/24 08:28:36;;;;;;;34.93;27.80;;;;;;;19.61;100.00;150968.00;5048603;27;20185;-61
2023/03/24 08:31:05;;;;;;;32.13;24.73;;;;;;;19.49;100.00;150937.44;5047815;28;20265;-63
2023/03/24 08:33:32;;;;;;;39.60;26.67;;;;;;;19.90;100.00;151039.31;5047875;28;20198;-61
2023/03/24 08:35:59;;;;;;;35.80;26.40;;;;;;;19.93;100.00;151046.94;5048596;28;20497;-63
2023/03/24 08:38:29;;;;;;;55.87;28.20;;;;;;;19.77;100.00;151007.47;5048235;27;20236;-61
2023/03/24 08:41:00;;;;;;;38.30;25.67;;;;;;;20.01;100.00;151067.28;5048520;28;20264;-60
2023/03/24 08:43:28;;;;;;;32.97;24.97;;;;;;;20.10;100.00;151088.94;5047981;28;20265;-61
2023/03/24 08:45:55;;;;;;;35.70;25.87;;;;;;;20.04;100.00;151076.19;5047820;28;20573;-61
2023/03/24 08:48:24;;;;;;;27.93;23.73;;;;;;;20.13;100.00;151096.56;5131394;27;20239;-61
2023/03/24 08:50:51;;;;;;;40.53;25.73;;;;;;;20.22;100.00;151120.75;5152416;27;20202;-61
2023/03/24 08:53:19;;;;;;;26.30;22.57;;;;;;;19.95;100.00;151052.00;5153148;27;20198;-60
2023/03/24 08:55:46;;;;;;;36.33;28.63;;;;;;;19.97;100.00;151057.09;5152908;27;20208;-61
2023/03/24 08:58:15;;;;;;;40.20;28.10;;;;;;;19.90;100.00;151039.31;5152795;27;20644;-61
2023/03/24 09:00:42;;;;;;;38.83;29.50;;;;;;;19.06;100.00;150827.97;5152587;27;20183;-60
2023/03/24 09:03:12;;;;;;;41.40;30.57;;;;;;;19.48;100.00;150934.91;5153027;27;20533;-61
2023/03/24 09:05:42;;;;;;;45.37;30.93;;;;;;;19.50;100.00;150940.00;5152564;27;20209;-60
2023/03/24 09:08:09;;;;;;;40.00;29.70;;;;;;;19.70;100.00;150989.63;5140940;27;20197;-61
2023/03/24 09:10:36;;;;;;;38.87;30.53;;;;;;;19.70;100.00;150989.63;5131912;28;20293;-61
2023/03/24 09:13:04;;;;;;;38.87;27.80;;;;;;;20.06;100.00;151080.03;5132230;28;20187;-61
2023/03/24 09:15:31;;;;;;;35.17;27.77;;;;;;;20.19;100.00;151111.84;5132083;28;20185;-60
2023/03/24 09:17:59;;;;;;;34.90;27.57;;;;;;;20.58;100.00;151211.19;5131797;28;20282;-60
2023/03/24 09:20:26;;;;;;;46.70;27.23;;;;;;;20.99;100.00;151314.41;5132296;28;20267;-61
2023/03/24 09:22:55;;;;;;;30.60;25.93;;;;;;;21.32;100.00;151397.25;5131799;28;20195;-61
2023/03/24 09:25:23;;;;;;;32.72;24.63;;;;;;;21.79;100.00;151515.78;5131653;28;20315;-60
2023/03/24 09:27:50;;;;;;;30.35;23.20;;;;;;;22.33;100.00;151652.25;5132295;28;20186;-61
2023/03/24 09:30:18;;;;;;;31.08;20.90;;;;;;;22.51;100.00;151696.88;5131415;28;20198;-61
2023/03/24 09:32:45;;;;;;;36.38;23.35;;;;;;;22.41;100.00;151671.34;5131362;28;20186;-60
2023/03/24 09:35:13;;;;;;;22.40;19.88;;;;;;;22.90;100.00;151796.44;5133423;27;20179;-61
2023/03/24 09:37:41;;;;;;;23.40;20.92;;;;;;;22.78;100.00;151765.81;5135532;27;20638;-61
2023/03/24 09:40:19;;;;;;;39.25;22.33;;;;;;;22.80;100.00;151770.91;5135569;27;20653;-60
2023/03/24 09:42:54;;;;;;;26.85;21.05;;;;;;;23.19;100.00;151869.13;5135392;27;20186;-60
2023/03/24 09:45:22;;;;;;;26.67;20.13;;;;;;;23.05;100.00;151833.41;5135496;27;20593;-60
2023/03/24 09:47:55;;;;;;;41.72;20.70;;;;;;;23.17;100.00;151865.28;5075973;27;20234;-61
2023/03/24 09:50:25;;;;;;;23.17;18.77;;;;;;;23.18;100.00;151867.84;5134233;27;20207;-60
2023/03/24 09:52:56;;;;;;;26.10;20.10;;;;;;;23.46;100.00;151936.84;5134865;27;20187;-61
2023/03/24 09:55:26;;;;;;;22.08;18.65;;;;;;;23.53;98.05;151954.69;5131694;27;20553;-60
2023/03/24 09:57:57;;;;;;;26.20;20.02;;;;;;;23.12;100.00;151852.56;5134939;27;20186;-61
2023/03/24 10:00:28;;;;;;;27.30;19.52;;;;;;;23.36;97.59;151912.53;5134716;27;20183;-62
2023/03/24 10:03:00;;;;;;;19.50;17.88;;;;;;;23.45;97.26;151935.56;5134787;27;20206;-60
2023/03/24 10:05:35;;;;;;;19.63;17.77;;;;;;;22.68;100.00;151740.25;5135685;27;20632;-60
2023/03/24 10:08:12;;;;;;;21.23;18.20;;;;;;;22.76;100.00;151761.97;5135131;27;20255;-60
2023/03/24 10:10:51;;;;;;;19.17;17.45;;;;;;;22.46;100.00;151684.13;5031236;28;20221;-61
2023/03/24 10:13:25;;;;;;;18.80;16.83;;;;;;;22.26;100.00;151635.69;5134318;27;20648;-59
2023/03/24 10:15:58;;;;;;;17.38;16.02;;;;;;;21.28;100.00;151388.34;5134738;27;20206;-60
2023/03/24 10:18:33;;;;;;;19.70;17.02;;;;;;;21.16;100.00;151356.50;5134992;27;20583;-60
2023/03/24 10:21:09;;;;;;;15.68;14.43;;;;;;;21.35;100.00;151406.16;5134440;27;20187;-60
2023/03/24 10:23:42;;;;;;;16.67;15.27;;;;;;;20.80;100.00;151267.25;5134566;27;20617;-61
2023/03/24 10:26:26;;;;;;;16.02;14.85;;;;;;;20.00;100.00;151064.72;5134260;27;20183;-60
2023/03/24 10:29:03;;;;;;;17.03;15.83;;;;;;;19.93;100.00;151046.94;5134078;27;20201;-60
2023/03/24 10:31:33;;;;;;;18.20;16.47;;;;;;;20.49;100.00;151189.59;5134115;27;20206;-60
2023/03/24 10:34:00;;;;;;;17.08;15.00;;;;;;;20.74;100.00;151250.72;5134374;27;20179;-60
2023/03/24 10:36:29;;;;;;;17.20;15.82;;;;;;;19.34;100.00;150899.25;5134415;27;20197;-60
2023/03/24 10:38:56;;;;;;;17.57;16.07;;;;;;;20.21;100.00;151116.94;5133941;27;20182;-59
2023/03/24 10:41:27;;;;;;;17.38;16.08;;;;;;;20.73;100.00;151248.16;5133861;27;20645;-61
2023/03/24 10:43:56;;;;;;;20.25;15.50;;;;;;;21.51;100.00;151445.72;5133894;27;20186;-59
2023/03/24 10:46:26;;;;;;;16.75;15.18;;;;;;;20.88;100.00;151287.63;5133440;27;20307;-60
2023/03/24 10:49:08;;;;;;;15.70;14.57;;;;;;;19.76;100.00;151003.66;5029745;28;20226;-60
2023/03/24 10:51:36;;;;;;;15.07;14.00;;;;;;;19.68;100.00;150983.28;5029476;28;20217;-60
2023/03/24 10:54:15;;;;;;;15.90;14.70;;;;;;;19.92;100.00;151044.38;5029775;28;20195;-62
2023/03/24 10:56:45;;;;;;;16.67;15.25;;;;;;;19.76;100.00;151003.66;5029805;28;20193;-60
2023/03/24 10:59:24;;;;;;;16.17;14.67;;;;;;;19.80;100.00;151013.81;5029538;28;20187;-59
2023/03/24 11:01:57;;;;;;;16.47;15.27;;;;;;;19.58;100.00;150960.38;5029687;28;20567;-62
2023/03/24 11:04:24;;;;;;;16.13;14.40;;;;;;;20.77;100.00;151259.63;5030010;28;20292;-60
2023/03/24 11:07:02;;;;;;;18.23;13.80;;;;;;;21.22;100.00;151373.03;5029481;28;20281;-60
2023/03/24 11:09:31;;;;;;;15.43;14.02;;;;;;;21.39;100.00;151416.38;5029557;28;20482;-59
2023/03/24 11:12:03;;;;;;;20.42;15.05;;;;;;;21.54;100.00;151452.06;5029235;28;20261;-59
2023/03/24 11:14:30;;;;;;;15.52;14.38;;;;;;;21.06;100.00;151330.94;5029403;28;20505;-59
2023/03/24 11:17:10;;;;;;;17.70;16.07;;;;;;;18.67;100.00;150731.28;5029099;28;20191;-59
2023/03/24 11:19:37;;;;;;;20.70;17.37;;;;;;;18.22;100.00;150618.06;5029324;28;20193;-60
2023/03/24 11:22:07;;;;;;;18.43;16.60;;;;;;;17.31;100.00;150389.22;5029028;28;20178;-60
2023/03/24 11:24:37;;;;;;;22.20;16.73;;;;;;;16.88;100.00;150281.28;5029227;28;20193;-59
2023/03/24 11:27:07;;;;;;;18.30;16.40;;;;;;;16.15;100.00;150097.09;5029255;28;20620;-60